createdAt,value
2023-05-24T00:00:22.295Z,94932.57
2023-05-24T00:01:48.764Z,94932.69
2023-05-24T00:02:55.287Z,94933.88
2023-05-24T00:04:01.972Z,94935.61
2023-05-24T00:05:10.995Z,94935.10
2023-05-24T00:06:17.152Z,94935.83
2023-05-24T00:07:23.563Z,94937.38
2023-05-24T00:08:29.848Z,94939.04
2023-05-24T00:09:35.905Z,94940.58
2023-05-24T00:10:42.376Z,94941.44
2023-05-24T00:11:48.934Z,94942.03
2023-05-24T00:12:55.569Z,94939.95
2023-05-24T00:14:01.696Z,94944.42
2023-05-24T00:15:10.952Z,94941.87
2023-05-24T00:16:17.229Z,94939.41
2023-05-24T00:17:25.432Z,94939.33
2023-05-24T00:18:31.475Z,94941.72
2023-05-24T00:19:39.521Z,94942.50
2023-05-24T00:20:46.431Z,94942.36
2023-05-24T00:21:53.562Z,94945.70
2023-05-24T00:23:00.284Z,94945.90
2023-05-24T00:24:07.125Z,94947.08
2023-05-24T00:25:13.702Z,94950.69
2023-05-24T00:26:19.506Z,94947.02
2023-05-24T00:27:25.582Z,94947.58
2023-05-24T00:28:32.184Z,94949.40
2023-05-24T00:29:38.347Z,94946.64
2023-05-24T00:30:44.440Z,94944.87
2023-05-24T00:31:51.074Z,94945.17
2023-05-24T00:32:57.537Z,94942.48
2023-05-24T00:34:03.405Z,94947.71
2023-05-24T00:35:10.774Z,94944.08
2023-05-24T00:36:16.654Z,94939.20
2023-05-24T00:37:23.431Z,94941.98
2023-05-24T00:38:29.420Z,94946.23
2023-05-24T00:39:35.781Z,94942.33
2023-05-24T00:40:42.059Z,94946.68
2023-05-24T00:42:06.527Z,94943.73
2023-05-24T00:43:12.462Z,94947.98
2023-05-24T00:44:19.299Z,94949.86
2023-05-24T00:45:25.612Z,94947.70
2023-05-24T00:46:35.252Z,94948.90
2023-05-24T00:47:44.139Z,94949.76
2023-05-24T00:48:54.729Z,94950.57
2023-05-24T00:50:03.127Z,94954.10
2023-05-24T00:51:09.291Z,94955.29
2023-05-24T00:52:18.366Z,94955.28
2023-05-24T00:53:26.132Z,94958.64
2023-05-24T00:54:32.736Z,94965.20
2023-05-24T00:55:42.891Z,94968.52
2023-05-24T00:56:51.262Z,94961.98
2023-05-24T00:57:59.052Z,94964.64
2023-05-24T00:59:06.564Z,94964.89
2023-05-24T01:00:16.068Z,94963.48
2023-05-24T01:01:26.049Z,94962.41
2023-05-24T01:02:34.175Z,94965.39
2023-05-24T01:03:41.855Z,94967.53
2023-05-24T01:04:49.179Z,94969.34
2023-05-24T01:05:55.464Z,94967.48
2023-05-24T01:07:18.269Z,94966.20
2023-05-24T01:08:40.343Z,94964.67
2023-05-24T01:10:00.651Z,94966.98
2023-05-24T01:11:18.707Z,94963.80
2023-05-24T01:12:32.581Z,94966.02
2023-05-24T01:13:49.207Z,94972.23
2023-05-24T01:15:11.271Z,94971.76
2023-05-24T01:16:22.761Z,94973.56
2023-05-24T01:17:38.126Z,94975.80
2023-05-24T01:18:53.782Z,94972.95
2023-05-24T01:20:08.356Z,94970.79
2023-05-24T01:21:28.874Z,94967.05
2023-05-24T01:23:14.859Z,94965.55
2023-05-24T01:24:31.993Z,94961.38
2023-05-24T01:26:17.787Z,94964.46
2023-05-24T01:27:25.730Z,94961.36
2023-05-24T01:28:36.453Z,94962.08
2023-05-24T01:29:44.042Z,94963.50
2023-05-24T01:30:52.547Z,94966.88
2023-05-24T01:31:58.810Z,94964.84
2023-05-24T01:33:05.823Z,94963.59
2023-05-24T01:34:13.445Z,94963.66
2023-05-24T01:35:20.076Z,94961.89
2023-05-24T01:36:26.325Z,94958.01
2023-05-24T01:37:32.091Z,94960.13
2023-05-24T01:38:39.500Z,94958.08
2023-05-24T01:39:46.872Z,94959.30
2023-05-24T01:41:00.194Z,94957.06
2023-05-24T01:42:18.178Z,94954.59
2023-05-24T01:43:38.261Z,94957.69
2023-05-24T01:44:49.219Z,94961.12
2023-05-24T01:46:03.781Z,94960.54
2023-05-24T01:47:28.838Z,94960.16
2023-05-24T01:48:47.264Z,94962.83
2023-05-24T01:50:04.775Z,94961.11
2023-05-24T01:51:12.260Z,94960.10
2023-05-24T01:52:23.268Z,94962.70
2023-05-24T01:53:35.156Z,94961.84
2023-05-24T01:54:51.736Z,94960.70
2023-05-24T01:56:00.188Z,94961.60
2023-05-24T01:57:10.482Z,94963.08
2023-05-24T01:58:21.696Z,94962.32
2023-05-24T01:59:30.617Z,94961.34
2023-05-24T02:00:39.268Z,94960.23
2023-05-24T02:01:47.718Z,94957.32
2023-05-24T02:02:54.543Z,94961.52
2023-05-24T02:04:02.737Z,94958.63
2023-05-24T02:05:12.407Z,94956.31
2023-05-24T02:06:18.545Z,94951.27
2023-05-24T02:07:24.710Z,94954.14
2023-05-24T02:08:30.608Z,94949.84
2023-05-24T02:09:37.120Z,94948.71
2023-05-24T02:10:43.515Z,94947.98
2023-05-24T02:11:49.820Z,94948.06
2023-05-24T02:12:56.510Z,94949.08
2023-05-24T02:14:02.586Z,94949.50
2023-05-24T02:15:15.002Z,94952.19
2023-05-24T02:16:24.085Z,94945.94
2023-05-24T02:17:33.338Z,94947.84
2023-05-24T02:18:38.112Z,94945.58
2023-05-24T02:19:48.061Z,94945.38
2023-05-24T02:20:54.586Z,94938.28
2023-05-24T02:22:04.941Z,94940.59
2023-05-24T02:23:10.838Z,94945.19
2023-05-24T02:24:19.388Z,94942.30
2023-05-24T02:25:25.723Z,94943.23
2023-05-24T02:26:32.132Z,94940.99
2023-05-24T02:27:37.899Z,94940.35
2023-05-24T02:28:43.738Z,94941.02
2023-05-24T02:29:51.226Z,94936.34
2023-05-24T02:30:57.246Z,94940.15
2023-05-24T02:32:03.682Z,94943.15
2023-05-24T02:33:09.588Z,94942.49
2023-05-24T02:34:16.427Z,94940.29
2023-05-24T02:35:23.689Z,94941.05
2023-05-24T02:36:29.817Z,94940.64
2023-05-24T02:37:36.402Z,94946.19
2023-05-24T02:38:44.442Z,94945.94
2023-05-24T02:39:50.903Z,94952.33
2023-05-24T02:41:00.756Z,94954.17
2023-05-24T02:42:09.062Z,94953.70
2023-05-24T02:43:16.038Z,94955.05
2023-05-24T02:44:22.204Z,94957.16
2023-05-24T02:45:27.948Z,94959.33
2023-05-24T02:46:36.596Z,94961.91
2023-05-24T02:47:42.669Z,94957.94
2023-05-24T02:48:50.509Z,94956.09
2023-05-24T02:49:56.798Z,94960.42
2023-05-24T02:51:03.972Z,94958.30
2023-05-24T02:52:12.938Z,94957.68
2023-05-24T02:53:18.891Z,94954.59
2023-05-24T02:54:24.729Z,94959.29
2023-05-24T02:55:33.384Z,94959.67
2023-05-24T02:56:40.738Z,94957.87
2023-05-24T02:57:48.262Z,94957.31
2023-05-24T02:58:54.335Z,94961.20
2023-05-24T03:00:01.202Z,94964.66
2023-05-24T03:01:08.709Z,94960.98
2023-05-24T03:02:16.299Z,94963.41
2023-05-24T03:03:23.183Z,94959.38
2023-05-24T03:04:29.137Z,94961.52
2023-05-24T03:05:34.885Z,94959.42
2023-05-24T03:06:41.515Z,94960.95
2023-05-24T03:07:47.716Z,94960.80
2023-05-24T03:08:53.928Z,94965.31
2023-05-24T03:10:00.379Z,94964.24
2023-05-24T03:11:10.553Z,94961.95
2023-05-24T03:12:16.373Z,94963.33
2023-05-24T03:13:22.754Z,94963.44
2023-05-24T03:14:29.451Z,94964.18
2023-05-24T03:15:35.770Z,94962.25
2023-05-24T03:16:43.000Z,94962.23
2023-05-24T03:17:49.716Z,94963.35
2023-05-24T03:18:56.569Z,94964.42
2023-05-24T03:20:06.376Z,94965.55
2023-05-24T03:21:11.031Z,94965.29
2023-05-24T03:22:17.321Z,94967.75
2023-05-24T03:23:23.842Z,94969.27
2023-05-24T03:24:30.012Z,94970.12
2023-05-24T03:25:35.930Z,94972.56
2023-05-24T03:26:42.069Z,94975.28
2023-05-24T03:27:48.470Z,94976.36
2023-05-24T03:28:55.038Z,94975.15
2023-05-24T03:30:01.769Z,94982.95
2023-05-24T03:31:09.365Z,94982.38
2023-05-24T03:32:15.742Z,94985.01
2023-05-24T03:33:22.192Z,94986.98
2023-05-24T03:34:28.066Z,94986.69
2023-05-24T03:35:36.031Z,94985.33
2023-05-24T03:36:42.325Z,94985.83
2023-05-24T03:37:48.221Z,94987.44
2023-05-24T03:38:58.417Z,94985.84
2023-05-24T03:40:10.475Z,94991.32
2023-05-24T03:41:16.820Z,94987.39
2023-05-24T03:42:22.729Z,94989.80
2023-05-24T03:43:29.573Z,94988.86
2023-05-24T03:44:36.326Z,94987.77
2023-05-24T03:45:42.421Z,94986.20
2023-05-24T03:46:48.975Z,94986.40
2023-05-24T03:47:55.074Z,94989.91
2023-05-24T03:49:01.101Z,94992.28
2023-05-24T03:50:08.863Z,94990.67
2023-05-24T03:51:14.967Z,94990.54
2023-05-24T03:52:21.708Z,94990.75
2023-05-24T03:53:27.540Z,94990.67
2023-05-24T03:54:33.516Z,94985.86
2023-05-24T03:55:40.199Z,94989.19
2023-05-24T03:56:46.619Z,94991.14
2023-05-24T03:57:52.490Z,94989.61
2023-05-24T03:59:01.884Z,94992.45
2023-05-24T04:00:14.088Z,94993.57
2023-05-24T04:01:32.698Z,94992.70
2023-05-24T04:02:44.399Z,94994.62
2023-05-24T04:03:52.080Z,94993.45
2023-05-24T04:04:58.016Z,94991.41
2023-05-24T04:06:04.506Z,94990.86
2023-05-24T04:07:12.290Z,94989.72
2023-05-24T04:08:18.938Z,94991.52
2023-05-24T04:09:24.834Z,94994.52
2023-05-24T04:10:31.691Z,94996.88
2023-05-24T04:11:37.619Z,94994.74
2023-05-24T04:12:47.538Z,94995.17
2023-05-24T04:13:57.914Z,94997.89
2023-05-24T04:15:04.863Z,95000.00
2023-05-24T04:16:14.617Z,94997.11
2023-05-24T04:17:25.612Z,94995.85
2023-05-24T04:18:32.454Z,94999.61
2023-05-24T04:19:41.027Z,94996.34
2023-05-24T04:20:48.591Z,94996.62
2023-05-24T04:21:54.566Z,94994.64
2023-05-24T04:23:00.913Z,94997.89
2023-05-24T04:24:08.409Z,94996.09
2023-05-24T04:25:15.087Z,94999.89
2023-05-24T04:26:22.960Z,95004.76
2023-05-24T04:27:30.274Z,95002.84
2023-05-24T04:28:36.489Z,95003.80
2023-05-24T04:29:45.707Z,95010.34
2023-05-24T04:30:55.379Z,95007.91
2023-05-24T04:32:01.965Z,95009.95
2023-05-24T04:33:08.566Z,95009.14
2023-05-24T04:34:14.804Z,95005.48
2023-05-24T04:35:22.092Z,95008.42
2023-05-24T04:36:29.307Z,95005.79
2023-05-24T04:37:36.636Z,95003.73
2023-05-24T04:38:43.104Z,94999.90
2023-05-24T04:39:49.877Z,95001.69
2023-05-24T04:40:59.540Z,95000.88
2023-05-24T04:42:06.431Z,95000.52
2023-05-24T04:43:12.628Z,95005.10
2023-05-24T04:44:18.869Z,95003.64
2023-05-24T04:45:25.171Z,95003.69
2023-05-24T04:46:32.069Z,95000.86
2023-05-24T04:47:38.213Z,94999.43
2023-05-24T04:48:45.005Z,94997.60
2023-05-24T04:49:51.978Z,94998.34
2023-05-24T04:51:01.131Z,94992.54
2023-05-24T04:52:09.417Z,94994.29
2023-05-24T04:53:15.220Z,94996.61
2023-05-24T04:54:21.267Z,94996.04
2023-05-24T04:55:27.822Z,94998.35
2023-05-24T04:56:33.544Z,95001.52
2023-05-24T04:57:41.387Z,95000.88
2023-05-24T04:58:48.920Z,95003.66
2023-05-24T04:59:55.494Z,95007.05
2023-05-24T05:01:02.857Z,95008.16
2023-05-24T05:02:09.232Z,95012.70
2023-05-24T05:03:16.797Z,95009.80
2023-05-24T05:04:23.583Z,95016.77
2023-05-24T05:05:29.655Z,95014.70
2023-05-24T05:06:39.193Z,95018.61
2023-05-24T05:07:45.450Z,95018.55
2023-05-24T05:08:52.104Z,95020.19
2023-05-24T05:09:58.630Z,95021.98
2023-05-24T05:11:05.383Z,95019.16
2023-05-24T05:12:11.566Z,95014.91
2023-05-24T05:13:18.155Z,95018.09
2023-05-24T05:14:24.417Z,95021.80
2023-05-24T05:15:31.243Z,95021.30
2023-05-24T05:16:37.843Z,95022.56
2023-05-24T05:17:44.696Z,95024.84
2023-05-24T05:18:51.941Z,95030.67
2023-05-24T05:19:58.057Z,95027.34
2023-05-24T05:21:04.737Z,95028.58
2023-05-24T05:22:11.104Z,95024.91
2023-05-24T05:23:16.895Z,95023.27
2023-05-24T05:24:23.464Z,95021.15
2023-05-24T05:25:31.102Z,95018.90
2023-05-24T05:26:37.480Z,95022.10
2023-05-24T05:27:43.962Z,95017.89
2023-05-24T05:28:50.585Z,95018.45
2023-05-24T05:29:57.287Z,95019.33
2023-05-24T05:31:03.113Z,95018.98
2023-05-24T05:32:10.459Z,95015.54
2023-05-24T05:33:16.833Z,95021.23
2023-05-24T05:34:23.091Z,95017.52
2023-05-24T05:35:29.502Z,95014.95
2023-05-24T05:36:40.801Z,95019.01
2023-05-24T05:37:47.396Z,95019.41
2023-05-24T05:38:54.789Z,95021.24
2023-05-24T05:40:01.183Z,95017.86
2023-05-24T05:41:07.403Z,95023.66
2023-05-24T05:42:13.671Z,95020.89
2023-05-24T05:43:19.774Z,95020.04
2023-05-24T05:44:25.770Z,95020.98
2023-05-24T05:45:31.798Z,95015.17
2023-05-24T05:46:37.998Z,95017.28
2023-05-24T05:47:45.280Z,95012.86
2023-05-24T05:48:51.673Z,95016.45
2023-05-24T05:49:57.508Z,95018.94
2023-05-24T05:51:04.112Z,95014.67
2023-05-24T05:52:10.967Z,95015.76
2023-05-24T05:53:17.693Z,95015.55
2023-05-24T05:54:24.003Z,95017.34
2023-05-24T05:55:30.395Z,95021.16
2023-05-24T05:56:46.137Z,95024.06
2023-05-24T05:57:51.988Z,95019.91
2023-05-24T05:58:58.339Z,95022.41
2023-05-24T06:00:07.745Z,95019.16
2023-05-24T06:01:14.280Z,95019.46
2023-05-24T06:02:22.851Z,95023.27
2023-05-24T06:03:29.148Z,95020.05
2023-05-24T06:04:35.347Z,95018.91
2023-05-24T06:05:42.297Z,95022.57
2023-05-24T06:06:50.721Z,95024.73
2023-05-24T06:07:56.724Z,95022.70
2023-05-24T06:09:03.035Z,95025.98
2023-05-24T06:10:12.274Z,95020.14
2023-05-24T06:11:17.079Z,95024.73
2023-05-24T06:12:22.963Z,95023.95
2023-05-24T06:13:31.243Z,95024.98
2023-05-24T06:14:39.641Z,95022.43
2023-05-24T06:15:45.395Z,95022.75
2023-05-24T06:16:53.548Z,95024.20
2023-05-24T06:18:03.661Z,95025.57
2023-05-24T06:19:09.742Z,95023.88
2023-05-24T06:20:17.388Z,95022.48
2023-05-24T06:21:23.758Z,95021.65
2023-05-24T06:22:30.076Z,95026.16
2023-05-24T06:23:36.648Z,95029.96
2023-05-24T06:24:44.504Z,95027.70
2023-05-24T06:25:50.867Z,95028.95
2023-05-24T06:26:57.135Z,95030.44
2023-05-24T06:28:03.587Z,95028.91
2023-05-24T06:29:09.857Z,95030.32
2023-05-24T06:30:16.793Z,95026.75
2023-05-24T06:31:23.093Z,95029.56
2023-05-24T06:32:29.786Z,95031.64
2023-05-24T06:33:37.787Z,95028.40
2023-05-24T06:34:44.764Z,95030.22
2023-05-24T06:35:51.445Z,95032.98
2023-05-24T06:36:58.195Z,95035.66
2023-05-24T06:38:04.542Z,95031.23
2023-05-24T06:39:11.017Z,95031.40
2023-05-24T06:40:17.490Z,95031.34
2023-05-24T06:41:23.834Z,95030.04
2023-05-24T06:42:30.247Z,95031.21
2023-05-24T06:43:36.248Z,95030.73
2023-05-24T06:44:42.833Z,95026.86
2023-05-24T06:45:50.160Z,95030.11
2023-05-24T06:46:57.475Z,95027.32
2023-05-24T06:48:03.835Z,95028.47
2023-05-24T06:49:10.422Z,95026.54
2023-05-24T06:50:17.271Z,95024.58
2023-05-24T06:51:23.845Z,95026.60
2023-05-24T06:52:29.803Z,95024.11
2023-05-24T06:53:36.596Z,95020.93
2023-05-24T06:54:42.768Z,95021.30
2023-05-24T06:55:49.601Z,95019.46
2023-05-24T06:56:58.637Z,95021.02
2023-05-24T06:58:07.444Z,95020.77
2023-05-24T06:59:13.776Z,95022.63
2023-05-24T07:00:22.886Z,95018.23
2023-05-24T07:01:29.592Z,95019.91
2023-05-24T07:02:36.209Z,95015.58
2023-05-24T07:03:43.001Z,95018.60
2023-05-24T07:04:48.804Z,95019.17
2023-05-24T07:05:55.380Z,95020.70
2023-05-24T07:07:02.935Z,95018.83
2023-05-24T07:08:09.657Z,95020.92
2023-05-24T07:09:16.767Z,95019.47
2023-05-24T07:10:22.890Z,95019.65
2023-05-24T07:11:29.159Z,95018.40
2023-05-24T07:12:35.505Z,95018.98
2023-05-24T07:13:42.293Z,95016.23
2023-05-24T07:14:49.557Z,95015.15
2023-05-24T07:15:56.966Z,95015.09
2023-05-24T07:17:03.408Z,95012.98
2023-05-24T07:18:10.563Z,95011.50
2023-05-24T07:19:17.019Z,95010.16
2023-05-24T07:20:23.282Z,95010.73
2023-05-24T07:21:29.806Z,95011.63
2023-05-24T07:22:36.316Z,95013.23
2023-05-24T07:23:42.517Z,95015.85
2023-05-24T07:24:48.264Z,95014.20
2023-05-24T07:25:54.448Z,95014.52
2023-05-24T07:27:02.954Z,95016.84
2023-05-24T07:28:09.296Z,95015.27
2023-05-24T07:29:16.052Z,95019.79
2023-05-24T07:30:31.607Z,95018.09
2023-05-24T07:31:40.103Z,95020.57
2023-05-24T07:32:46.788Z,95021.20
2023-05-24T07:33:53.069Z,95022.73
2023-05-24T07:34:59.515Z,95024.33
2023-05-24T07:36:08.964Z,95019.96
2023-05-24T07:37:14.947Z,95022.83
2023-05-24T07:38:21.651Z,95021.17
2023-05-24T07:39:28.586Z,95022.59
2023-05-24T07:40:36.025Z,95019.74
2023-05-24T07:41:42.377Z,95019.76
2023-05-24T07:42:48.950Z,95016.98
2023-05-24T07:43:57.481Z,95017.29
2023-05-24T07:45:03.718Z,95018.41
2023-05-24T07:46:10.550Z,95017.77
2023-05-24T07:47:17.456Z,95018.73
2023-05-24T07:48:24.022Z,95019.06
2023-05-24T07:49:33.370Z,95017.01
2023-05-24T07:50:39.794Z,95014.22
2023-05-24T07:51:47.057Z,95013.97
2023-05-24T07:52:53.218Z,95014.77
2023-05-24T07:53:59.702Z,95016.52
2023-05-24T07:55:08.690Z,95010.38
2023-05-24T07:56:15.676Z,95012.52
2023-05-24T07:57:23.274Z,95013.30
2023-05-24T07:58:30.078Z,95014.81
2023-05-24T07:59:36.294Z,95010.44
2023-05-24T08:00:42.644Z,95007.95
2023-05-24T08:01:48.519Z,95008.97
2023-05-24T08:02:54.680Z,95010.55
2023-05-24T08:04:01.711Z,95005.05
2023-05-24T08:05:13.885Z,95007.59
2023-05-24T08:06:20.264Z,95009.47
2023-05-24T08:07:27.801Z,95008.27
2023-05-24T08:08:34.706Z,95010.35
2023-05-24T08:09:41.966Z,95009.88
2023-05-24T08:10:48.068Z,95006.45
2023-05-24T08:11:54.375Z,95007.23
2023-05-24T08:13:01.550Z,95002.06
2023-05-24T08:14:07.539Z,95002.79
2023-05-24T08:15:13.624Z,95005.39
2023-05-24T08:16:20.206Z,95003.81
2023-05-24T08:17:26.958Z,95002.14
2023-05-24T08:18:33.490Z,95004.29
2023-05-24T08:19:39.738Z,95001.58
2023-05-24T08:20:46.226Z,94999.89
2023-05-24T08:21:53.942Z,94997.77
2023-05-24T08:22:59.865Z,94996.23
2023-05-24T08:24:09.123Z,94994.70
2023-05-24T08:25:16.784Z,94997.33
2023-05-24T08:26:25.242Z,94997.31
2023-05-24T08:27:31.273Z,94994.50
2023-05-24T08:28:39.727Z,94996.32
2023-05-24T08:29:45.819Z,94989.70
2023-05-24T08:30:52.238Z,94992.48
2023-05-24T08:31:58.842Z,94990.81
2023-05-24T08:33:05.646Z,94990.43
2023-05-24T08:34:13.887Z,94990.34
2023-05-24T08:35:21.615Z,94992.23
2023-05-24T08:36:28.067Z,94989.67
2023-05-24T08:37:34.372Z,94986.48
2023-05-24T08:38:40.769Z,94986.38
2023-05-24T08:39:47.188Z,94988.00
2023-05-24T08:40:53.801Z,94987.94
2023-05-24T08:42:09.162Z,94986.30
2023-05-24T08:43:16.970Z,94987.23
2023-05-24T08:44:26.104Z,94984.19
2023-05-24T08:45:37.457Z,94987.59
2023-05-24T08:46:43.960Z,94989.30
2023-05-24T08:47:53.167Z,94988.09
2023-05-24T08:49:05.295Z,94984.52
2023-05-24T08:50:12.864Z,94984.90
2023-05-24T08:51:20.912Z,94986.97
2023-05-24T08:52:28.343Z,94986.05
2023-05-24T08:53:37.701Z,94983.33
2023-05-24T08:54:46.144Z,94983.19
2023-05-24T08:55:54.271Z,94988.86
2023-05-24T08:57:02.006Z,94987.79
2023-05-24T08:58:09.942Z,94984.94
2023-05-24T08:59:18.350Z,94984.98
2023-05-24T09:00:26.584Z,94987.80
2023-05-24T09:01:34.628Z,94984.89
2023-05-24T09:02:44.043Z,94985.08
2023-05-24T09:03:51.088Z,94986.23
2023-05-24T09:05:02.502Z,94982.23
2023-05-24T09:06:12.120Z,94985.85
2023-05-24T09:07:20.213Z,94980.63
2023-05-24T09:08:28.171Z,94977.42
2023-05-24T09:09:38.199Z,94976.75
2023-05-24T09:10:54.153Z,94976.13
2023-05-24T09:12:05.354Z,94980.23
2023-05-24T09:13:15.972Z,94977.46
2023-05-24T09:14:22.673Z,94980.45
2023-05-24T09:15:30.055Z,94977.21
2023-05-24T09:16:37.269Z,94978.75
2023-05-24T09:17:44.325Z,94979.08
2023-05-24T09:18:51.589Z,94977.36
2023-05-24T09:19:58.607Z,94980.08
2023-05-24T09:21:05.104Z,94975.70
2023-05-24T09:22:15.288Z,94971.90
2023-05-24T09:23:25.036Z,94973.80
2023-05-24T09:24:32.258Z,94971.28
2023-05-24T09:25:43.846Z,94971.09
2023-05-24T09:26:52.950Z,94971.05
2023-05-24T09:27:59.177Z,94971.46
2023-05-24T09:29:09.579Z,94968.46
2023-05-24T09:30:18.342Z,94968.88
2023-05-24T09:31:34.640Z,94964.95
2023-05-24T09:32:41.415Z,94969.36
2023-05-24T09:33:52.274Z,94967.92
2023-05-24T09:35:00.390Z,94969.85
2023-05-24T09:36:09.974Z,94971.16
2023-05-24T09:37:18.256Z,94968.44
2023-05-24T09:38:26.616Z,94971.79
2023-05-24T09:39:33.333Z,94970.91
2023-05-24T09:40:41.192Z,94967.05
2023-05-24T09:41:57.926Z,94968.77
2023-05-24T09:43:10.601Z,94970.59
2023-05-24T09:44:19.643Z,94967.88
2023-05-24T09:45:27.034Z,94963.36
2023-05-24T09:46:38.975Z,94964.02
2023-05-24T09:47:49.092Z,94962.80
2023-05-24T09:49:04.653Z,94965.83
2023-05-24T09:50:14.986Z,94964.14
2023-05-24T09:51:24.930Z,94960.33
2023-05-24T09:52:33.193Z,94961.52
2023-05-24T09:53:49.010Z,94960.70
2023-05-24T09:54:55.758Z,94959.84
2023-05-24T09:56:05.412Z,94959.27
2023-05-24T09:57:11.648Z,94960.52
2023-05-24T09:58:20.098Z,94959.65
2023-05-24T09:59:24.896Z,94959.34
2023-05-24T10:00:35.279Z,94960.91
2023-05-24T10:01:42.162Z,94958.81
2023-05-24T10:03:00.098Z,94958.42
2023-05-24T10:04:09.924Z,94957.64
2023-05-24T10:05:17.541Z,94963.33
2023-05-24T10:06:24.144Z,94959.36
2023-05-24T10:07:32.115Z,94957.84
2023-05-24T10:08:39.312Z,94954.48
2023-05-24T10:09:47.244Z,94955.55
2023-05-24T10:10:53.851Z,94955.05
2023-05-24T10:12:02.579Z,94950.10
2023-05-24T10:13:09.170Z,94948.02
2023-05-24T10:14:17.138Z,94947.64
2023-05-24T10:15:23.348Z,94946.38
2023-05-24T10:16:30.780Z,94941.73
2023-05-24T10:17:37.732Z,94945.69
2023-05-24T10:18:46.360Z,94944.92
2023-05-24T10:19:52.427Z,94946.52
2023-05-24T10:21:03.520Z,94945.20
2023-05-24T10:22:14.138Z,94947.85
2023-05-24T10:23:23.878Z,94943.26
2023-05-24T10:24:37.609Z,94939.41
2023-05-24T10:25:51.248Z,94940.20
2023-05-24T10:27:01.445Z,94936.91
2023-05-24T10:28:13.183Z,94935.36
2023-05-24T10:29:30.167Z,94927.81
2023-05-24T10:30:44.366Z,94931.79
2023-05-24T10:31:54.858Z,94929.16
2023-05-24T10:33:03.164Z,94933.89
2023-05-24T10:34:10.436Z,94928.85
2023-05-24T10:35:19.360Z,94926.56
2023-05-24T10:36:28.951Z,94935.63
2023-05-24T10:37:35.883Z,94929.14
2023-05-24T10:38:42.830Z,94926.39
2023-05-24T10:39:49.469Z,94929.16
2023-05-24T10:40:56.120Z,94932.50
2023-05-24T10:42:10.188Z,94927.77
2023-05-24T10:43:16.793Z,94927.08
2023-05-24T10:44:29.281Z,94929.41
2023-05-24T10:45:39.930Z,94922.58
2023-05-24T10:47:13.606Z,94921.52
2023-05-24T10:48:41.795Z,94920.90
2023-05-24T10:49:54.607Z,94916.06
2023-05-24T10:51:25.328Z,94920.09
2023-05-24T10:52:38.023Z,94917.95
2023-05-24T10:53:44.973Z,94923.25
2023-05-24T10:55:08.731Z,94922.73
2023-05-24T10:56:15.393Z,94920.68
2023-05-24T10:57:32.559Z,94916.44
2023-05-24T10:59:07.798Z,94918.56
2023-05-24T11:01:42.826Z,94913.80
2023-05-24T11:03:01.648Z,94915.58
2023-05-24T11:04:15.755Z,94910.91
2023-05-24T11:05:24.052Z,94911.98
2023-05-24T11:06:50.618Z,94912.61
2023-05-24T11:08:04.356Z,94913.20
2023-05-24T11:09:12.657Z,94916.16
2023-05-24T11:10:29.787Z,94910.95
2023-05-24T11:11:40.264Z,94915.33
2023-05-24T11:12:47.202Z,94915.74
2023-05-24T11:14:01.865Z,94910.63
2023-05-24T11:15:12.005Z,94915.20
2023-05-24T11:16:38.693Z,94914.71
2023-05-24T11:18:17.191Z,94906.80
2023-05-24T11:19:25.208Z,94904.30
2023-05-24T11:20:32.839Z,94911.10
2023-05-24T11:21:39.526Z,94908.35
2023-05-24T11:22:47.002Z,94909.63
2023-05-24T11:23:54.085Z,94917.02
2023-05-24T11:25:04.653Z,94913.81
2023-05-24T11:26:11.232Z,94911.98
2023-05-24T11:27:18.617Z,94913.06
2023-05-24T11:28:25.539Z,94913.52
2023-05-24T11:29:33.566Z,94911.47
2023-05-24T11:30:48.666Z,94910.73
2023-05-24T11:31:58.142Z,94910.05
2023-05-24T11:33:06.039Z,94909.55
2023-05-24T11:34:13.767Z,94907.91
2023-05-24T11:35:24.450Z,94911.98
2023-05-24T11:36:31.251Z,94906.61
2023-05-24T11:37:46.321Z,94903.86
2023-05-24T11:38:57.281Z,94900.80
2023-05-24T11:40:10.152Z,94896.30
2023-05-24T11:41:18.812Z,94898.39
2023-05-24T11:42:25.470Z,94903.86
2023-05-24T11:43:33.246Z,94899.35
2023-05-24T11:44:40.275Z,94901.48
2023-05-24T11:45:50.292Z,94900.79
2023-05-24T11:47:01.229Z,94897.70
2023-05-24T11:48:08.290Z,94899.33
2023-05-24T11:49:17.398Z,94893.48
2023-05-24T11:50:28.791Z,94893.19
2023-05-24T11:51:38.931Z,94889.47
2023-05-24T11:52:44.903Z,94888.15
2023-05-24T11:53:54.758Z,94890.27
2023-05-24T11:55:01.566Z,94886.77
2023-05-24T11:56:09.630Z,94889.16
2023-05-24T11:57:17.245Z,94891.44
2023-05-24T11:58:30.920Z,94890.02
2023-05-24T11:59:38.778Z,94892.27
2023-05-24T12:00:47.135Z,94891.02
2023-05-24T12:02:01.209Z,94891.21
2023-05-24T12:03:09.414Z,94892.02
2023-05-24T12:04:15.700Z,94894.46
2023-05-24T12:05:24.083Z,94898.98
2023-05-24T12:06:38.554Z,94895.96
2023-05-24T12:07:49.033Z,94895.20
2023-05-24T12:08:55.464Z,94891.31
2023-05-24T12:10:01.566Z,94889.44
2023-05-24T12:11:08.079Z,94886.60
2023-05-24T12:12:14.217Z,94887.27
2023-05-24T12:13:31.745Z,94886.83
2023-05-24T12:14:39.292Z,94883.66
2023-05-24T12:15:45.603Z,94883.70
2023-05-24T12:16:58.637Z,94881.91
2023-05-24T12:18:05.280Z,94878.85
2023-05-24T12:19:31.416Z,94873.07
2023-05-24T12:20:40.559Z,94867.73
2023-05-24T12:21:47.311Z,94866.20
2023-05-24T12:22:55.114Z,94866.89
2023-05-24T12:24:08.888Z,94863.88
2023-05-24T12:25:22.747Z,94868.14
2023-05-24T12:26:29.112Z,94864.23
2023-05-24T12:27:35.579Z,94863.89
2023-05-24T12:28:42.009Z,94869.66
2023-05-24T12:29:49.111Z,94873.00
2023-05-24T12:30:54.947Z,94874.29
2023-05-24T12:32:03.755Z,94871.21
2023-05-24T12:33:10.266Z,94878.71
2023-05-24T12:34:18.850Z,94875.94
2023-05-24T12:35:25.948Z,94883.89
2023-05-24T12:36:33.080Z,94878.15
2023-05-24T12:37:39.809Z,94880.14
2023-05-24T12:38:46.269Z,94873.02
2023-05-24T12:39:54.664Z,94876.44
2023-05-24T12:42:13.996Z,94881.05
2023-05-24T12:43:22.970Z,94877.33
2023-05-24T12:44:31.404Z,94874.27
2023-05-24T12:45:37.671Z,94867.20
2023-05-24T12:46:43.551Z,94869.80
2023-05-24T12:47:49.800Z,94871.67
2023-05-24T12:48:56.278Z,94870.09
2023-05-24T12:50:05.120Z,94872.57
2023-05-24T12:51:12.345Z,94874.31
2023-05-24T12:52:18.603Z,94870.53
2023-05-24T12:53:26.252Z,94871.82
2023-05-24T12:54:32.363Z,94868.02
2023-05-24T12:55:40.422Z,94869.34
2023-05-24T12:56:47.475Z,94873.85
2023-05-24T12:57:57.324Z,94868.80
2023-05-24T12:59:03.338Z,94867.07
2023-05-24T13:00:12.400Z,94859.02
2023-05-24T13:01:18.660Z,94863.29
2023-05-24T13:02:26.863Z,94864.84
2023-05-24T13:03:32.794Z,94866.64
2023-05-24T13:04:39.171Z,94863.56
2023-05-24T13:05:47.468Z,94858.89
2023-05-24T13:06:53.883Z,94863.80
2023-05-24T13:08:00.631Z,94864.41
2023-05-24T13:09:07.033Z,94868.00
2023-05-24T13:10:14.364Z,94867.40
2023-05-24T13:11:21.961Z,94866.76
2023-05-24T13:12:28.868Z,94870.14
2023-05-24T13:13:35.573Z,94871.55
2023-05-24T13:14:41.778Z,94861.44
2023-05-24T13:15:49.852Z,94862.30
2023-05-24T13:16:56.360Z,94854.08
2023-05-24T13:18:02.839Z,94856.45
2023-05-24T13:19:08.893Z,94857.12
2023-05-24T13:20:16.272Z,94857.19
2023-05-24T13:21:22.585Z,94853.14
2023-05-24T13:22:28.440Z,94853.50
2023-05-24T13:23:39.378Z,94854.66
2023-05-24T13:24:45.233Z,94859.44
2023-05-24T13:25:53.202Z,94863.50
2023-05-24T13:27:00.088Z,94859.80